Terminal Aerodrome Forecast
Issued by NWS Memphis, TN

Home | Current Version | Previous Version | Text Only | Print | Product List | Glossary On
Versions: 1 2 3 4 5 6 7 8 9 10 11 12 13 14 15 16 17 18 19 20 21 22 23 24 25 26 27 28 29 30 31 32 33 34 35 36 37 38 39 40 41 42 43
000
FTUS44 KMEG 250258 AAC
TAFMEM
TAF AMD
KMEM 250258Z 2503/2524 26007KT P6SM BKN045
     FM250600 24004KT P6SM FEW035
     FM251500 20011KT P6SM SKC=

USA.gov is the U.S. government's official web portal to all federal, state and local government web resources and services.